createdAt,value
2023-02-19T06:32:23.359Z,0.00
2023-02-19T06:33:23.823Z,0.00
2023-02-19T06:34:25.474Z,0.00
2023-02-19T06:35:30.790Z,0.00
2023-02-19T06:36:25.728Z,0.00
2023-02-19T06:37:25.039Z,0.00
2023-02-19T06:38:26.074Z,0.00
2023-02-19T06:39:24.793Z,0.00
2023-02-19T06:40:24.642Z,0.00
2023-02-19T06:41:25.036Z,0.00
2023-02-19T06:42:27.178Z,5.62
2023-02-19T06:43:25.481Z,5.62
2023-02-19T06:44:26.730Z,5.62
2023-02-19T06:45:24.436Z,5.62
2023-02-19T06:46:29.819Z,5.62
2023-02-19T06:47:25.617Z,5.62
2023-02-19T06:48:25.760Z,5.62
2023-02-19T06:49:27.113Z,5.62
2023-02-19T06:50:27.038Z,5.62
2023-02-19T06:51:32.228Z,0.00
2023-02-19T06:52:25.265Z,0.00
2023-02-19T06:53:24.810Z,0.00
2023-02-19T06:54:25.873Z,0.00
2023-02-19T06:55:24.863Z,0.00
2023-02-19T06:56:24.144Z,0.00
2023-02-19T06:57:31.973Z,5.62
2023-02-19T06:58:27.596Z,5.62
2023-02-19T06:59:25.706Z,5.62
2023-02-19T07:00:24.252Z,5.62
2023-02-19T07:01:25.401Z,5.62
2023-02-19T07:02:24.305Z,5.62
2023-02-19T07:03:24.133Z,5.62
2023-02-19T07:04:24.109Z,5.62
2023-02-19T07:05:24.126Z,11.25
2023-02-19T07:06:25.287Z,11.25
2023-02-19T07:07:24.752Z,11.25
2023-02-19T07:08:24.035Z,16.88
2023-02-19T07:09:24.125Z,16.88
2023-02-19T07:10:24.126Z,16.88
2023-02-19T07:11:23.996Z,16.88
2023-02-19T07:12:25.822Z,22.50
2023-02-19T07:13:23.954Z,16.88
2023-02-19T07:14:35.465Z,16.88
2023-02-19T07:15:33.948Z,16.88
2023-02-19T07:16:35.187Z,16.88
2023-02-19T07:17:28.212Z,16.88
2023-02-19T07:20:33.863Z,22.50
2023-02-19T07:21:34.065Z,22.50
2023-02-19T07:22:33.859Z,22.50
2023-02-19T07:23:33.992Z,28.12
2023-02-19T07:24:45.175Z,39.38
2023-02-19T07:25:34.923Z,50.62
2023-02-19T07:26:36.265Z,50.62
2023-02-19T07:27:34.423Z,45.00
2023-02-19T07:28:48.142Z,33.75
2023-02-19T07:29:42.777Z,28.12
2023-02-19T07:31:04.489Z,28.12
2023-02-19T07:31:48.925Z,28.12
2023-02-19T07:33:34.439Z,28.12
2023-02-19T07:34:11.859Z,33.75
2023-02-19T07:34:50.956Z,33.75
2023-02-19T07:35:41.980Z,33.75
2023-02-19T07:36:41.026Z,28.12
2023-02-19T07:37:41.916Z,22.50
2023-02-19T07:38:41.064Z,16.88
2023-02-19T07:39:41.045Z,16.88
2023-02-19T07:40:41.996Z,16.88
2023-02-19T07:41:41.875Z,16.88
2023-02-19T07:42:41.360Z,22.50
2023-02-19T07:43:41.574Z,22.50
2023-02-19T07:44:41.113Z,28.12
2023-02-19T07:45:41.101Z,28.12
2023-02-19T07:46:41.655Z,28.12
2023-02-19T07:47:42.029Z,28.12
2023-02-19T07:48:41.741Z,28.12
2023-02-19T07:49:40.905Z,39.38
2023-02-19T07:50:42.833Z,45.00
2023-02-19T07:51:40.840Z,39.38
2023-02-19T07:52:40.836Z,33.75
2023-02-19T07:53:40.824Z,28.12
2023-02-19T07:54:41.437Z,28.12
2023-02-19T07:55:40.904Z,22.50
2023-02-19T07:56:40.817Z,22.50
2023-02-19T07:57:40.720Z,16.88
2023-02-19T07:58:41.554Z,11.25
2023-02-19T07:59:40.781Z,11.25
2023-02-19T08:00:40.840Z,11.25
2023-02-19T08:01:40.707Z,16.88
2023-02-19T08:02:41.300Z,16.88
2023-02-19T08:03:40.742Z,16.88
2023-02-19T08:04:40.801Z,22.50
2023-02-19T08:05:40.707Z,22.50
2023-02-19T08:06:40.697Z,28.12
2023-02-19T08:07:40.642Z,33.75
2023-02-19T08:08:40.621Z,39.38
2023-02-19T08:09:40.900Z,45.00
2023-02-19T08:10:40.798Z,56.25
2023-02-19T08:11:41.220Z,61.88
2023-02-19T08:12:40.624Z,61.88
2023-02-19T08:13:40.932Z,56.25
2023-02-19T08:14:40.702Z,56.25
2023-02-19T08:15:42.582Z,56.25
2023-02-19T08:16:43.214Z,56.25
2023-02-19T08:17:40.586Z,50.62
2023-02-19T08:18:47.848Z,56.25
2023-02-19T08:19:40.606Z,56.25
2023-02-19T08:20:41.113Z,56.25
2023-02-19T08:21:44.631Z,50.62
2023-02-19T08:23:01.979Z,50.62
2023-02-19T08:23:45.876Z,50.62
2023-02-19T08:28:55.568Z,45.00
2023-02-19T08:29:57.686Z,50.62
2023-02-19T08:31:34.645Z,45.00
2023-02-19T08:31:58.913Z,45.00
2023-02-19T08:33:05.158Z,45.00
2023-02-19T08:34:23.678Z,50.62
2023-02-19T08:37:08.597Z,45.00
2023-02-19T08:38:08.597Z,50.62
2023-02-19T08:39:08.553Z,50.62
2023-02-19T08:40:08.626Z,45.00
2023-02-19T08:41:08.753Z,56.25
2023-02-19T08:42:43.556Z,73.12
2023-02-19T08:43:10.157Z,78.75
2023-02-19T08:44:09.867Z,78.75
2023-02-19T08:45:09.640Z,73.12
2023-02-19T08:46:09.868Z,61.88
2023-02-19T08:47:09.628Z,50.62
2023-02-19T08:48:09.674Z,33.75
2023-02-19T08:49:09.600Z,39.38
2023-02-19T08:50:09.642Z,45.00
2023-02-19T08:51:09.821Z,56.25
2023-02-19T08:52:09.633Z,67.50
2023-02-19T08:53:09.613Z,73.12
2023-02-19T08:56:24.071Z,61.88
2023-02-19T08:57:24.402Z,56.25
2023-02-19T08:58:24.053Z,50.62
2023-02-19T08:59:25.163Z,50.62
2023-02-19T09:00:25.090Z,45.00
2023-02-19T09:01:25.315Z,39.38
2023-02-19T09:02:25.170Z,33.75
2023-02-19T09:03:25.090Z,39.38
2023-02-19T09:04:25.179Z,39.38
2023-02-19T09:05:25.144Z,39.38
2023-02-19T09:06:25.027Z,39.38
2023-02-19T09:07:25.125Z,45.00
2023-02-19T09:08:25.112Z,50.62
2023-02-19T09:09:25.236Z,56.25
2023-02-19T09:10:25.242Z,61.88
2023-02-19T09:11:25.622Z,67.50
2023-02-19T09:12:25.065Z,73.12
2023-02-19T09:13:24.985Z,67.50
2023-02-19T09:14:24.988Z,67.50
2023-02-19T09:15:58.983Z,67.50
2023-02-19T09:17:01.270Z,56.25
2023-02-19T09:17:25.551Z,50.62
2023-02-19T09:18:24.952Z,50.62
2023-02-19T09:19:57.469Z,50.62
2023-02-19T09:20:25.737Z,56.25
2023-02-19T09:21:25.326Z,56.25
2023-02-19T09:22:57.349Z,61.88
